sensor_id;sensor_type;location;lat;lon;timestamp;temperature;humidity
36916;DHT22;22836;52.268;9.008;2022-07-29T00:02:30;21.30;38.10
36916;DHT22;22836;52.268;9.008;2022-07-29T00:06:32;21.40;38.10
36916;DHT22;22836;52.268;9.008;2022-07-29T00:10:38;21.30;38.10
36916;DHT22;22836;52.268;9.008;2022-07-29T00:14:42;21.30;38.20
36916;DHT22;22836;52.268;9.008;2022-07-29T00:18:44;21.30;38.20
36916;DHT22;22836;52.268;9.008;2022-07-29T00:22:46;21.30;38.10
36916;DHT22;22836;52.268;9.008;2022-07-29T00:26:48;21.30;38.30
36916;DHT22;22836;52.268;9.008;2022-07-29T00:30:50;21.20;38.60
36916;DHT22;22836;52.268;9.008;2022-07-29T00:34:52;21.20;38.30
36916;DHT22;22836;52.268;9.008;2022-07-29T00:38:53;21.10;38.60
36916;DHT22;22836;52.268;9.008;2022-07-29T00:42:55;21.10;38.50
36916;DHT22;22836;52.268;9.008;2022-07-29T00:46:59;21.00;38.40
36916;DHT22;22836;52.268;9.008;2022-07-29T00:51:05;21.00;38.60
36916;DHT22;22836;52.268;9.008;2022-07-29T00:55:11;20.90;38.70
36916;DHT22;22836;52.268;9.008;2022-07-29T00:59:16;20.90;38.80
36916;DHT22;22836;52.268;9.008;2022-07-29T01:03:18;20.90;39.50
36916;DHT22;22836;52.268;9.008;2022-07-29T01:07:25;20.80;39.00
36916;DHT22;22836;52.268;9.008;2022-07-29T01:11:27;20.70;39.00
36916;DHT22;22836;52.268;9.008;2022-07-29T01:15:29;20.70;39.10
36916;DHT22;22836;52.268;9.008;2022-07-29T01:19:41;20.60;39.20
36916;DHT22;22836;52.268;9.008;2022-07-29T01:24:09;20.60;39.40
36916;DHT22;22836;52.268;9.008;2022-07-29T01:28:30;20.60;39.50
36916;DHT22;22836;52.268;9.008;2022-07-29T01:32:53;20.50;39.60
36916;DHT22;22836;52.268;9.008;2022-07-29T01:37:05;20.50;39.70
36916;DHT22;22836;52.268;9.008;2022-07-29T01:41:15;20.40;39.80
36916;DHT22;22836;52.268;9.008;2022-07-29T01:49:59;20.40;40.00
36916;DHT22;22836;52.268;9.008;2022-07-29T01:54:16;20.40;39.90
36916;DHT22;22836;52.268;9.008;2022-07-29T01:58:21;20.40;40.10
36916;DHT22;22836;52.268;9.008;2022-07-29T02:02:23;20.40;40.00
36916;DHT22;22836;52.268;9.008;2022-07-29T02:06:27;20.30;40.00
36916;DHT22;22836;52.268;9.008;2022-07-29T02:10:30;20.30;40.10
36916;DHT22;22836;52.268;9.008;2022-07-29T02:14:36;20.30;40.20
36916;DHT22;22836;52.268;9.008;2022-07-29T02:18:40;20.30;40.30
36916;DHT22;22836;52.268;9.008;2022-07-29T02:22:45;20.30;40.40
36916;DHT22;22836;52.268;9.008;2022-07-29T02:26:48;20.30;40.40
36916;DHT22;22836;52.268;9.008;2022-07-29T02:30:52;20.20;40.20
36916;DHT22;22836;52.268;9.008;2022-07-29T02:34:55;20.20;40.20
36916;DHT22;22836;52.268;9.008;2022-07-29T02:38:57;20.20;40.30
36916;DHT22;22836;52.268;9.008;2022-07-29T02:43:02;20.20;40.90
36916;DHT22;22836;52.268;9.008;2022-07-29T02:51:18;20.20;40.50
36916;DHT22;22836;52.268;9.008;2022-07-29T02:55:44;20.10;40.30
36916;DHT22;22836;52.268;9.008;2022-07-29T02:59:48;20.10;40.40
36916;DHT22;22836;52.268;9.008;2022-07-29T03:03:52;20.10;40.50
36916;DHT22;22836;52.268;9.008;2022-07-29T03:08:04;20.20;40.70
36916;DHT22;22836;52.268;9.008;2022-07-29T03:12:07;20.10;40.70
36916;DHT22;22836;52.268;9.008;2022-07-29T03:16:09;20.20;40.80
36916;DHT22;22836;52.268;9.008;2022-07-29T03:20:12;20.20;40.90
36916;DHT22;22836;52.268;9.008;2022-07-29T03:24:25;20.10;40.90
36916;DHT22;22836;52.268;9.008;2022-07-29T03:28:28;20.10;40.90
36916;DHT22;22836;52.268;9.008;2022-07-29T03:32:32;20.10;41.00
36916;DHT22;22836;52.268;9.008;2022-07-29T03:36:34;20.10;40.90
36916;DHT22;22836;52.268;9.008;2022-07-29T03:40:49;20.10;40.90
36916;DHT22;22836;52.268;9.008;2022-07-29T03:44:54;20.00;40.80
36916;DHT22;22836;52.268;9.008;2022-07-29T03:48:58;20.00;41.30
36916;DHT22;22836;52.268;9.008;2022-07-29T03:53:02;19.90;41.00
36916;DHT22;22836;52.268;9.008;2022-07-29T03:57:04;19.90;41.10
36916;DHT22;22836;52.268;9.008;2022-07-29T04:01:07;19.80;41.20
36916;DHT22;22836;52.268;9.008;2022-07-29T04:05:12;19.80;41.30
36916;DHT22;22836;52.268;9.008;2022-07-29T04:09:14;19.80;41.30
36916;DHT22;22836;52.268;9.008;2022-07-29T04:13:16;19.80;41.20
36916;DHT22;22836;52.268;9.008;2022-07-29T04:17:17;19.70;41.40
36916;DHT22;22836;52.268;9.008;2022-07-29T04:21:19;19.70;41.40
36916;DHT22;22836;52.268;9.008;2022-07-29T04:25:21;19.80;41.50
36916;DHT22;22836;52.268;9.008;2022-07-29T04:29:22;19.80;41.40
36916;DHT22;22836;52.268;9.008;2022-07-29T04:33:24;19.80;41.40
36916;DHT22;22836;52.268;9.008;2022-07-29T04:37:26;19.80;41.50
36916;DHT22;22836;52.268;9.008;2022-07-29T04:41:28;19.90;41.60
36916;DHT22;22836;52.268;9.008;2022-07-29T04:45:33;19.90;41.60
36916;DHT22;22836;52.268;9.008;2022-07-29T04:49:37;19.90;41.40
36916;DHT22;22836;52.268;9.008;2022-07-29T04:53:39;20.00;41.50
36916;DHT22;22836;52.268;9.008;2022-07-29T04:57:41;20.00;41.60
36916;DHT22;22836;52.268;9.008;2022-07-29T05:01:43;20.00;41.40
36916;DHT22;22836;52.268;9.008;2022-07-29T05:05:45;20.00;41.50
36916;DHT22;22836;52.268;9.008;2022-07-29T05:09:46;20.00;41.50
36916;DHT22;22836;52.268;9.008;2022-07-29T05:13:48;20.00;41.50
36916;DHT22;22836;52.268;9.008;2022-07-29T05:17:50;20.00;41.60
36916;DHT22;22836;52.268;9.008;2022-07-29T05:21:52;20.10;41.80
36916;DHT22;22836;52.268;9.008;2022-07-29T05:25:54;20.10;42.00
36916;DHT22;22836;52.268;9.008;2022-07-29T05:29:56;20.10;41.60
36916;DHT22;22836;52.268;9.008;2022-07-29T05:33:57;20.10;41.70
36916;DHT22;22836;52.268;9.008;2022-07-29T05:37:59;20.10;41.70
36916;DHT22;22836;52.268;9.008;2022-07-29T05:42:02;20.10;41.70
36916;DHT22;22836;52.268;9.008;2022-07-29T05:46:03;20.20;41.80
36916;DHT22;22836;52.268;9.008;2022-07-29T05:50:05;20.20;41.70
36916;DHT22;22836;52.268;9.008;2022-07-29T05:54:07;20.30;41.70
36916;DHT22;22836;52.268;9.008;2022-07-29T05:58:09;20.40;41.70
36916;DHT22;22836;52.268;9.008;2022-07-29T06:02:11;20.60;41.80
36916;DHT22;22836;52.268;9.008;2022-07-29T06:06:13;20.70;41.80
36916;DHT22;22836;52.268;9.008;2022-07-29T06:10:15;20.80;41.70
36916;DHT22;22836;52.268;9.008;2022-07-29T06:14:16;21.00;41.70
36916;DHT22;22836;52.268;9.008;2022-07-29T06:18:19;21.20;41.50
36916;DHT22;22836;52.268;9.008;2022-07-29T06:22:20;21.30;41.40
36916;DHT22;22836;52.268;9.008;2022-07-29T06:26:22;21.40;41.30
36916;DHT22;22836;52.268;9.008;2022-07-29T06:30:32;21.50;41.30
36916;DHT22;22836;52.268;9.008;2022-07-29T06:34:34;21.70;41.10
36916;DHT22;22836;52.268;9.008;2022-07-29T06:38:36;21.80;41.10
36916;DHT22;22836;52.268;9.008;2022-07-29T06:42:43;21.90;41.00
36916;DHT22;22836;52.268;9.008;2022-07-29T06:46:45;22.00;41.00
36916;DHT22;22836;52.268;9.008;2022-07-29T06:50:47;22.20;40.90
36916;DHT22;22836;52.268;9.008;2022-07-29T06:54:49;22.30;40.80
36916;DHT22;22836;52.268;9.008;2022-07-29T06:58:51;22.50;40.70
36916;DHT22;22836;52.268;9.008;2022-07-29T07:02:52;22.70;40.50
36916;DHT22;22836;52.268;9.008;2022-07-29T07:06:54;22.90;40.40
36916;DHT22;22836;52.268;9.008;2022-07-29T07:10:56;23.00;40.30
36916;DHT22;22836;52.268;9.008;2022-07-29T07:14:57;23.20;40.20
36916;DHT22;22836;52.268;9.008;2022-07-29T07:19:00;23.30;40.10
36916;DHT22;22836;52.268;9.008;2022-07-29T07:23:02;23.40;40.10
36916;DHT22;22836;52.268;9.008;2022-07-29T07:27:04;23.50;40.00
36916;DHT22;22836;52.268;9.008;2022-07-29T07:31:05;23.60;39.80
36916;DHT22;22836;52.268;9.008;2022-07-29T07:35:08;23.80;39.80
36916;DHT22;22836;52.268;9.008;2022-07-29T07:39:10;23.90;39.70
36916;DHT22;22836;52.268;9.008;2022-07-29T07:43:12;24.10;39.70
36916;DHT22;22836;52.268;9.008;2022-07-29T07:47:15;24.30;39.60
36916;DHT22;22836;52.268;9.008;2022-07-29T07:51:18;24.40;39.50
36916;DHT22;22836;52.268;9.008;2022-07-29T07:55:22;24.40;39.30
36916;DHT22;22836;52.268;9.008;2022-07-29T07:59:24;24.50;39.20
36916;DHT22;22836;52.268;9.008;2022-07-29T08:03:25;24.60;39.20
36916;DHT22;22836;52.268;9.008;2022-07-29T08:07:28;24.80;39.20
36916;DHT22;22836;52.268;9.008;2022-07-29T08:11:30;24.90;39.20
36916;DHT22;22836;52.268;9.008;2022-07-29T08:15:38;24.90;39.10
36916;DHT22;22836;52.268;9.008;2022-07-29T08:19:41;25.10;39.00
36916;DHT22;22836;52.268;9.008;2022-07-29T08:23:45;25.20;38.90
36916;DHT22;22836;52.268;9.008;2022-07-29T08:27:53;25.40;38.90
36916;DHT22;22836;52.268;9.008;2022-07-29T08:36:42;25.60;38.80
36916;DHT22;22836;52.268;9.008;2022-07-29T08:40:50;25.70;38.80
36916;DHT22;22836;52.268;9.008;2022-07-29T08:44:52;25.90;38.80
36916;DHT22;22836;52.268;9.008;2022-07-29T08:48:54;26.10;38.60
36916;DHT22;22836;52.268;9.008;2022-07-29T08:52:56;26.20;38.50
36916;DHT22;22836;52.268;9.008;2022-07-29T08:57:00;26.30;38.50
36916;DHT22;22836;52.268;9.008;2022-07-29T09:01:03;26.50;38.50
36916;DHT22;22836;52.268;9.008;2022-07-29T09:05:08;26.70;38.40
36916;DHT22;22836;52.268;9.008;2022-07-29T09:09:13;26.80;38.30
36916;DHT22;22836;52.268;9.008;2022-07-29T09:13:18;27.00;38.20
36916;DHT22;22836;52.268;9.008;2022-07-29T09:17:38;27.10;38.20
36916;DHT22;22836;52.268;9.008;2022-07-29T09:21:40;27.30;38.00
36916;DHT22;22836;52.268;9.008;2022-07-29T09:25:42;27.50;37.90
36916;DHT22;22836;52.268;9.008;2022-07-29T09:29:44;27.60;37.80
36916;DHT22;22836;52.268;9.008;2022-07-29T09:33:46;27.70;37.70
36916;DHT22;22836;52.268;9.008;2022-07-29T09:37:47;27.70;37.50
36916;DHT22;22836;52.268;9.008;2022-07-29T09:41:53;27.80;37.50
36916;DHT22;22836;52.268;9.008;2022-07-29T09:46:09;27.70;37.30
36916;DHT22;22836;52.268;9.008;2022-07-29T09:50:14;27.70;37.40
36916;DHT22;22836;52.268;9.008;2022-07-29T09:54:23;27.60;37.20
36916;DHT22;22836;52.268;9.008;2022-07-29T09:58:26;27.60;37.40
36916;DHT22;22836;52.268;9.008;2022-07-29T10:02:32;27.60;37.60
36916;DHT22;22836;52.268;9.008;2022-07-29T10:06:36;27.60;37.50
36916;DHT22;22836;52.268;9.008;2022-07-29T10:11:09;27.60;37.60
36916;DHT22;22836;52.268;9.008;2022-07-29T10:15:12;27.70;37.70
36916;DHT22;22836;52.268;9.008;2022-07-29T10:19:14;27.90;37.70
36916;DHT22;22836;52.268;9.008;2022-07-29T10:23:15;28.10;37.40
36916;DHT22;22836;52.268;9.008;2022-07-29T10:27:17;28.30;37.30
36916;DHT22;22836;52.268;9.008;2022-07-29T10:31:22;28.40;37.30
36916;DHT22;22836;52.268;9.008;2022-07-29T10:39:51;28.70;37.60
36916;DHT22;22836;52.268;9.008;2022-07-29T10:44:04;28.90;36.90
36916;DHT22;22836;52.268;9.008;2022-07-29T10:48:17;29.10;37.00
36916;DHT22;22836;52.268;9.008;2022-07-29T10:52:19;29.30;36.80
36916;DHT22;22836;52.268;9.008;2022-07-29T10:56:31;29.50;36.80
36916;DHT22;22836;52.268;9.008;2022-07-29T11:00:34;29.60;36.60
36916;DHT22;22836;52.268;9.008;2022-07-29T11:09:06;29.80;36.20
36916;DHT22;22836;52.268;9.008;2022-07-29T11:18:07;30.00;36.00
36916;DHT22;22836;52.268;9.008;2022-07-29T11:22:33;30.10;35.90
36916;DHT22;22836;52.268;9.008;2022-07-29T11:26:35;30.20;35.80
36916;DHT22;22836;52.268;9.008;2022-07-29T11:30:50;30.20;35.90
36916;DHT22;22836;52.268;9.008;2022-07-29T11:44:06;30.40;35.70
36916;DHT22;22836;52.268;9.008;2022-07-29T11:48:14;30.40;35.60
36916;DHT22;22836;52.268;9.008;2022-07-29T11:52:40;30.50;35.60
36916;DHT22;22836;52.268;9.008;2022-07-29T11:56:50;30.60;35.70
36916;DHT22;22836;52.268;9.008;2022-07-29T12:00:53;30.60;35.70
36916;DHT22;22836;52.268;9.008;2022-07-29T12:04:56;30.80;35.70
36916;DHT22;22836;52.268;9.008;2022-07-29T12:08:58;31.10;35.90
36916;DHT22;22836;52.268;9.008;2022-07-29T12:13:00;31.30;35.50
36916;DHT22;22836;52.268;9.008;2022-07-29T12:17:03;31.50;35.30
36916;DHT22;22836;52.268;9.008;2022-07-29T12:21:06;31.60;35.10
36916;DHT22;22836;52.268;9.008;2022-07-29T12:25:13;31.70;35.00
36916;DHT22;22836;52.268;9.008;2022-07-29T12:29:33;31.70;35.20
36916;DHT22;22836;52.268;9.008;2022-07-29T12:33:36;31.60;34.90
36916;DHT22;22836;52.268;9.008;2022-07-29T12:37:38;31.60;34.90
36916;DHT22;22836;52.268;9.008;2022-07-29T12:41:43;31.60;35.10
36916;DHT22;22836;52.268;9.008;2022-07-29T12:45:51;31.60;35.10
36916;DHT22;22836;52.268;9.008;2022-07-29T12:50:10;31.80;35.10
36916;DHT22;22836;52.268;9.008;2022-07-29T12:54:14;31.90;35.10
36916;DHT22;22836;52.268;9.008;2022-07-29T12:58:26;32.30;35.30
36916;DHT22;22836;52.268;9.008;2022-07-29T13:02:32;32.50;35.00
36916;DHT22;22836;52.268;9.008;2022-07-29T13:10:51;33.00;34.70
36916;DHT22;22836;52.268;9.008;2022-07-29T13:14:53;33.20;34.60
36916;DHT22;22836;52.268;9.008;2022-07-29T13:23:07;33.70;34.20
36916;DHT22;22836;52.268;9.008;2022-07-29T13:27:09;34.00;34.20
36916;DHT22;22836;52.268;9.008;2022-07-29T13:31:10;34.20;34.10
36916;DHT22;22836;52.268;9.008;2022-07-29T13:35:12;34.20;33.70
36916;DHT22;22836;52.268;9.008;2022-07-29T13:39:14;34.30;33.80
36916;DHT22;22836;52.268;9.008;2022-07-29T13:43:16;34.40;33.80
36916;DHT22;22836;52.268;9.008;2022-07-29T13:47:18;34.50;33.60
36916;DHT22;22836;52.268;9.008;2022-07-29T13:51:20;34.70;33.70
36916;DHT22;22836;52.268;9.008;2022-07-29T13:55:30;34.80;33.30
36916;DHT22;22836;52.268;9.008;2022-07-29T13:59:34;35.00;33.50
36916;DHT22;22836;52.268;9.008;2022-07-29T14:03:46;35.00;33.20
36916;DHT22;22836;52.268;9.008;2022-07-29T14:07:48;35.10;33.10
36916;DHT22;22836;52.268;9.008;2022-07-29T14:11:52;35.20;33.00
36916;DHT22;22836;52.268;9.008;2022-07-29T14:16:00;35.20;32.80
36916;DHT22;22836;52.268;9.008;2022-07-29T14:20:09;35.10;32.70
36916;DHT22;22836;52.268;9.008;2022-07-29T14:24:13;34.80;32.60
36916;DHT22;22836;52.268;9.008;2022-07-29T14:28:22;34.50;32.60
36916;DHT22;22836;52.268;9.008;2022-07-29T14:32:25;34.20;32.70
36916;DHT22;22836;52.268;9.008;2022-07-29T14:36:27;33.90;32.70
36916;DHT22;22836;52.268;9.008;2022-07-29T14:40:32;33.60;32.50
36916;DHT22;22836;52.268;9.008;2022-07-29T14:44:35;33.30;32.90
36916;DHT22;22836;52.268;9.008;2022-07-29T14:48:37;33.10;33.10
36916;DHT22;22836;52.268;9.008;2022-07-29T14:52:39;33.10;34.20
36916;DHT22;22836;52.268;9.008;2022-07-29T14:56:41;33.60;33.80
36916;DHT22;22836;52.268;9.008;2022-07-29T15:00:47;34.20;33.20
36916;DHT22;22836;52.268;9.008;2022-07-29T15:04:49;34.30;32.60
36916;DHT22;22836;52.268;9.008;2022-07-29T15:08:51;34.10;32.40
36916;DHT22;22836;52.268;9.008;2022-07-29T15:12:53;33.80;32.30
36916;DHT22;22836;52.268;9.008;2022-07-29T15:16:55;33.50;32.60
36916;DHT22;22836;52.268;9.008;2022-07-29T15:20:57;33.10;32.60
36916;DHT22;22836;52.268;9.008;2022-07-29T15:24:59;32.80;32.70
36916;DHT22;22836;52.268;9.008;2022-07-29T15:29:01;32.50;32.80
36916;DHT22;22836;52.268;9.008;2022-07-29T15:33:04;32.20;33.00
36916;DHT22;22836;52.268;9.008;2022-07-29T15:37:06;32.00;33.10
36916;DHT22;22836;52.268;9.008;2022-07-29T15:41:08;31.80;33.20
36916;DHT22;22836;52.268;9.008;2022-07-29T15:45:09;31.60;33.30
36916;DHT22;22836;52.268;9.008;2022-07-29T15:49:11;31.40;33.50
36916;DHT22;22836;52.268;9.008;2022-07-29T15:53:13;31.30;33.50
36916;DHT22;22836;52.268;9.008;2022-07-29T15:57:15;31.20;33.60
36916;DHT22;22836;52.268;9.008;2022-07-29T16:01:17;31.10;33.70
36916;DHT22;22836;52.268;9.008;2022-07-29T16:05:21;30.90;33.70
36916;DHT22;22836;52.268;9.008;2022-07-29T16:09:28;30.80;33.80
36916;DHT22;22836;52.268;9.008;2022-07-29T16:13:34;30.70;33.80
36916;DHT22;22836;52.268;9.008;2022-07-29T16:17:43;30.50;33.90
36916;DHT22;22836;52.268;9.008;2022-07-29T16:21:47;30.40;34.00
36916;DHT22;22836;52.268;9.008;2022-07-29T16:25:52;30.30;34.20
36916;DHT22;22836;52.268;9.008;2022-07-29T16:30:02;30.20;34.20
36916;DHT22;22836;52.268;9.008;2022-07-29T16:34:09;30.00;34.20
36916;DHT22;22836;52.268;9.008;2022-07-29T16:38:11;30.00;34.80
36916;DHT22;22836;52.268;9.008;2022-07-29T16:42:18;29.90;34.20
36916;DHT22;22836;52.268;9.008;2022-07-29T16:46:43;29.80;34.30
36916;DHT22;22836;52.268;9.008;2022-07-29T16:50:45;29.70;34.40
36916;DHT22;22836;52.268;9.008;2022-07-29T16:54:47;29.60;34.30
36916;DHT22;22836;52.268;9.008;2022-07-29T16:58:49;29.50;34.30
36916;DHT22;22836;52.268;9.008;2022-07-29T17:02:50;29.40;34.40
36916;DHT22;22836;52.268;9.008;2022-07-29T17:17:18;28.90;36.50
36916;DHT22;22836;52.268;9.008;2022-07-29T17:21:40;28.20;39.80
36916;DHT22;22836;52.268;9.008;2022-07-29T17:25:49;27.30;41.40
36916;DHT22;22836;52.268;9.008;2022-07-29T17:29:51;26.60;42.80
36916;DHT22;22836;52.268;9.008;2022-07-29T17:33:52;26.00;44.20
36916;DHT22;22836;52.268;9.008;2022-07-29T17:38:00;25.50;45.00
36916;DHT22;22836;52.268;9.008;2022-07-29T17:42:02;25.20;46.20
36916;DHT22;22836;52.268;9.008;2022-07-29T17:46:04;24.90;46.70
36916;DHT22;22836;52.268;9.008;2022-07-29T17:50:06;24.70;47.20
36916;DHT22;22836;52.268;9.008;2022-07-29T17:54:08;24.50;47.70
36916;DHT22;22836;52.268;9.008;2022-07-29T17:58:10;24.30;48.10
36916;DHT22;22836;52.268;9.008;2022-07-29T18:06:37;24.10;48.10
36916;DHT22;22836;52.268;9.008;2022-07-29T18:10:39;24.00;48.10
36916;DHT22;22836;52.268;9.008;2022-07-29T18:14:41;24.00;48.30
36916;DHT22;22836;52.268;9.008;2022-07-29T18:18:43;23.90;48.30
36916;DHT22;22836;52.268;9.008;2022-07-29T18:22:49;23.80;48.30
36916;DHT22;22836;52.268;9.008;2022-07-29T18:26:53;23.70;48.80
36916;DHT22;22836;52.268;9.008;2022-07-29T18:30:55;23.50;49.70
36916;DHT22;22836;52.268;9.008;2022-07-29T18:35:03;23.40;49.40
36916;DHT22;22836;52.268;9.008;2022-07-29T18:39:07;23.30;50.10
36916;DHT22;22836;52.268;9.008;2022-07-29T18:43:21;23.20;49.80
36916;DHT22;22836;52.268;9.008;2022-07-29T18:47:23;23.20;49.40
36916;DHT22;22836;52.268;9.008;2022-07-29T18:51:32;23.20;49.20
36916;DHT22;22836;52.268;9.008;2022-07-29T18:55:34;23.20;49.70
36916;DHT22;22836;52.268;9.008;2022-07-29T18:59:42;23.30;48.90
